createdAt,value
2022-08-27T00:03:18.718Z,8.80
2022-08-27T00:08:25.329Z,9.70
2022-08-27T00:13:31.258Z,9.50
2022-08-27T00:18:38.449Z,8.40
2022-08-27T00:23:44.399Z,9.30
2022-08-27T00:28:50.858Z,8.70
2022-08-27T00:33:57.739Z,8.40
2022-08-27T00:39:04.356Z,8.60
2022-08-27T00:44:12.636Z,9.40
2022-08-27T00:49:22.942Z,9.40
2022-08-27T00:54:29.618Z,9.90
2022-08-27T00:59:36.534Z,8.80
2022-08-27T01:04:44.710Z,9.10
2022-08-27T01:09:51.886Z,9.30
2022-08-27T01:14:58.850Z,9.10
2022-08-27T01:20:09.922Z,8.90
2022-08-27T01:30:23.554Z,9.40
2022-08-27T01:35:29.993Z,8.60
2022-08-27T01:40:37.005Z,9.00
2022-08-27T01:45:49.696Z,9.10
2022-08-27T01:50:56.155Z,9.80
2022-08-27T01:56:04.723Z,9.40
2022-08-27T02:01:16.424Z,8.90
2022-08-27T02:06:22.573Z,9.90
2022-08-27T02:11:28.510Z,9.80
2022-08-27T02:16:34.401Z,9.30
2022-08-27T02:21:47.314Z,9.30
2022-08-27T02:26:53.647Z,9.20
2022-08-27T02:31:59.942Z,9.50
2022-08-27T02:37:07.340Z,9.30
2022-08-27T02:42:13.191Z,9.80
2022-08-27T02:47:19.486Z,9.10
2022-08-27T02:52:26.477Z,9.30
2022-08-27T02:57:32.400Z,9.30
2022-08-27T03:02:43.089Z,8.90
2022-08-27T03:07:49.662Z,9.00
2022-08-27T03:12:55.500Z,9.70
2022-08-27T03:18:20.299Z,9.60
2022-08-27T03:23:29.207Z,8.70
2022-08-27T03:28:36.317Z,9.00
2022-08-27T03:33:43.530Z,9.80
2022-08-27T03:38:49.934Z,9.70
2022-08-27T03:43:56.944Z,9.60
2022-08-27T03:49:02.961Z,8.90
2022-08-27T03:54:10.619Z,8.90
2022-08-27T03:59:16.663Z,8.70
2022-08-27T04:04:24.207Z,8.80
2022-08-27T04:09:30.303Z,8.90
2022-08-27T04:14:36.180Z,9.20
2022-08-27T04:19:42.325Z,9.40
2022-08-27T04:24:48.423Z,8.20
2022-08-27T04:29:58.257Z,9.20
2022-08-27T04:35:04.706Z,9.60
2022-08-27T04:40:12.149Z,8.70
2022-08-27T04:45:18.167Z,8.20
2022-08-27T04:50:24.711Z,8.10
2022-08-27T04:55:40.745Z,7.60
2022-08-27T05:00:49.401Z,7.60
2022-08-27T05:06:02.539Z,7.80
2022-08-27T05:11:13.032Z,7.20
2022-08-27T05:16:21.856Z,7.40
2022-08-27T05:21:31.780Z,7.00
2022-08-27T05:26:37.890Z,6.50
2022-08-27T05:31:44.181Z,6.70
2022-08-27T05:36:50.171Z,7.00
2022-08-27T05:41:59.250Z,6.50
2022-08-27T05:52:13.699Z,6.00
2022-08-27T05:57:19.702Z,5.50
2022-08-27T06:02:25.719Z,5.20
2022-08-27T06:07:32.607Z,4.30
2022-08-27T06:12:39.306Z,4.50
2022-08-27T06:17:45.174Z,4.50
2022-08-27T06:22:52.069Z,4.20
2022-08-27T06:27:58.598Z,4.60
2022-08-27T06:38:09.793Z,4.70
2022-08-27T06:43:15.965Z,4.00
2022-08-27T06:48:21.805Z,3.60
2022-08-27T06:53:27.953Z,3.40
2022-08-27T06:58:34.559Z,3.90
2022-08-27T07:03:40.808Z,3.20
2022-08-27T07:08:53.229Z,3.20
2022-08-27T07:14:00.485Z,3.30
2022-08-27T07:19:07.311Z,3.60
2022-08-27T07:24:13.301Z,3.10
2022-08-27T07:29:20.079Z,3.60
2022-08-27T07:34:26.110Z,3.50
2022-08-27T07:39:32.067Z,3.40
2022-08-27T07:44:38.013Z,3.60
2022-08-27T07:49:44.049Z,3.50
2022-08-27T07:54:50.253Z,3.50
2022-08-27T07:59:56.439Z,3.60
2022-08-27T08:05:02.825Z,3.40
2022-08-27T08:10:11.408Z,3.40
2022-08-27T08:15:18.088Z,3.10
2022-08-27T08:20:35.998Z,3.40
2022-08-27T08:25:50.082Z,3.40
2022-08-27T08:30:56.578Z,3.30
2022-08-27T08:36:08.258Z,3.40
2022-08-27T08:41:37.013Z,3.70
2022-08-27T08:46:49.941Z,3.90
2022-08-27T08:52:02.349Z,3.70
2022-08-27T08:57:18.682Z,3.40
2022-08-27T09:02:24.885Z,3.70
2022-08-27T09:07:40.700Z,3.80
2022-08-27T09:12:46.742Z,3.60
2022-08-27T09:23:09.411Z,3.60
2022-08-27T09:28:38.762Z,3.60
2022-08-27T09:33:56.785Z,4.00
2022-08-27T09:39:08.305Z,3.80
2022-08-27T09:44:17.789Z,3.90
2022-08-27T09:49:24.664Z,3.50
2022-08-27T09:54:41.916Z,3.60
2022-08-27T09:59:53.939Z,3.40
2022-08-27T10:05:13.854Z,3.20
2022-08-27T10:10:24.198Z,3.70
2022-08-27T10:15:36.441Z,3.50
2022-08-27T10:21:05.633Z,3.70
2022-08-27T10:26:21.558Z,3.50
2022-08-27T10:31:35.406Z,2.90
2022-08-27T10:36:52.850Z,3.00
2022-08-27T10:42:08.155Z,2.90
2022-08-27T10:47:27.157Z,3.00
2022-08-27T10:52:38.123Z,3.10
2022-08-27T10:58:13.395Z,3.00
2022-08-27T11:03:32.185Z,2.60
2022-08-27T11:08:43.006Z,2.50
2022-08-27T11:13:53.444Z,2.80
2022-08-27T11:19:12.798Z,2.70
2022-08-27T11:24:31.958Z,2.50
2022-08-27T11:29:49.842Z,2.60
2022-08-27T11:34:59.421Z,3.00
2022-08-27T11:40:38.206Z,3.10
2022-08-27T11:45:57.502Z,3.60
2022-08-27T11:51:06.294Z,3.70
2022-08-27T11:56:20.796Z,4.20
2022-08-27T12:01:31.691Z,3.30
2022-08-27T12:06:45.276Z,4.10
2022-08-27T12:12:00.597Z,4.30
2022-08-27T12:20:55.340Z,4.30
2022-08-27T12:26:39.155Z,5.00
2022-08-27T12:32:04.911Z,5.10
2022-08-27T12:37:27.759Z,6.00
2022-08-27T12:42:49.779Z,5.50
2022-08-27T12:48:24.699Z,6.20
2022-08-27T12:54:08.071Z,6.00
2022-08-27T12:59:57.395Z,5.80
2022-08-27T13:05:52.053Z,6.60
2022-08-27T13:11:31.654Z,8.10
2022-08-27T13:16:57.490Z,7.50
2022-08-27T13:22:24.939Z,6.80
2022-08-27T13:28:20.064Z,7.30
2022-08-27T13:33:45.646Z,6.30
2022-08-27T13:39:13.720Z,5.70
2022-08-27T13:45:01.374Z,5.30
2022-08-27T13:50:38.938Z,6.30
2022-08-27T13:56:07.784Z,6.10
2022-08-27T14:01:36.025Z,6.10
2022-08-27T14:13:13.225Z,6.80
2022-08-27T14:19:04.017Z,6.90
2022-08-27T14:25:17.875Z,6.50
2022-08-27T14:30:29.987Z,6.30
2022-08-27T14:35:38.653Z,5.80
2022-08-27T14:40:44.957Z,6.20
2022-08-27T14:45:53.469Z,5.80
2022-08-27T14:51:02.326Z,5.80
2022-08-27T14:56:08.920Z,5.80
2022-08-27T15:01:16.018Z,5.70
2022-08-27T15:06:23.741Z,5.20
2022-08-27T15:11:32.091Z,5.70
2022-08-27T15:16:41.130Z,5.50
2022-08-27T15:21:48.944Z,6.30
2022-08-27T15:26:59.246Z,5.50
2022-08-27T15:32:06.279Z,5.60
2022-08-27T15:37:12.186Z,4.80
2022-08-27T15:42:18.786Z,4.80
2022-08-27T15:47:25.095Z,4.90
2022-08-27T15:52:40.305Z,4.70
2022-08-27T15:57:47.172Z,5.20
2022-08-27T16:02:54.128Z,5.10
2022-08-27T16:08:00.103Z,5.10
2022-08-27T16:13:06.135Z,4.70
2022-08-27T16:18:12.305Z,5.80
2022-08-27T16:23:19.979Z,4.60
2022-08-27T16:28:26.189Z,4.70
2022-08-27T16:33:34.823Z,4.70
2022-08-27T16:38:45.662Z,5.20
2022-08-27T16:43:51.487Z,4.90
2022-08-27T16:49:16.426Z,4.90
2022-08-27T16:54:22.418Z,5.70
2022-08-27T16:59:28.378Z,4.90
2022-08-27T17:04:38.030Z,4.70
2022-08-27T17:09:48.224Z,5.20
2022-08-27T17:14:55.837Z,7.60
2022-08-27T17:20:02.593Z,6.40
2022-08-27T17:25:10.619Z,6.30
2022-08-27T17:30:16.743Z,6.10
2022-08-27T17:35:22.834Z,6.20
2022-08-27T17:40:28.795Z,6.30
2022-08-27T17:45:34.909Z,5.50
2022-08-27T17:50:40.984Z,6.30
2022-08-27T17:55:46.785Z,6.90
2022-08-27T18:00:53.229Z,5.70
2022-08-27T18:05:59.184Z,6.00
2022-08-27T18:11:07.113Z,5.40
2022-08-27T18:16:13.110Z,6.10
2022-08-27T18:21:25.114Z,6.80
2022-08-27T18:26:33.385Z,6.70
2022-08-27T18:31:39.294Z,6.10
2022-08-27T18:36:45.219Z,5.80
2022-08-27T18:41:51.314Z,6.10
2022-08-27T18:46:57.409Z,5.90
2022-08-27T18:52:04.665Z,5.20
2022-08-27T18:57:13.183Z,5.80
2022-08-27T19:02:21.840Z,5.80
2022-08-27T19:07:36.404Z,5.90
2022-08-27T19:12:58.973Z,5.50
2022-08-27T19:18:09.412Z,5.50
2022-08-27T19:23:15.473Z,6.20
2022-08-27T19:28:35.681Z,6.40
2022-08-27T19:33:41.868Z,7.10
2022-08-27T19:38:51.570Z,8.60
2022-08-27T19:44:03.882Z,6.30
2022-08-27T19:49:10.336Z,6.30
2022-08-27T19:54:16.157Z,11.50
2022-08-27T19:59:22.124Z,19.80
2022-08-27T20:04:32.463Z,20.10
2022-08-27T20:09:41.663Z,14.60
2022-08-27T20:14:47.509Z,9.90
2022-08-27T20:19:58.932Z,11.30
2022-08-27T20:25:05.594Z,18.60
2022-08-27T20:30:14.025Z,23.40
2022-08-27T20:35:20.613Z,30.80
2022-08-27T20:40:31.629Z,25.70
2022-08-27T20:45:41.603Z,20.60
2022-08-27T20:50:59.457Z,17.40
2022-08-27T20:56:24.129Z,16.20
2022-08-27T21:01:31.767Z,14.60
2022-08-27T21:06:37.683Z,13.30
2022-08-27T21:11:43.465Z,13.90
2022-08-27T21:16:49.483Z,14.90
2022-08-27T21:21:55.754Z,14.20
2022-08-27T21:27:01.714Z,12.90
2022-08-27T21:32:09.625Z,10.60
2022-08-27T21:37:16.184Z,9.80
2022-08-27T21:42:22.201Z,9.40
2022-08-27T21:47:29.478Z,9.90
2022-08-27T21:52:35.436Z,10.00
2022-08-27T21:57:41.381Z,9.40
2022-08-27T22:02:47.124Z,8.50
2022-08-27T22:07:52.857Z,8.70
2022-08-27T22:12:59.095Z,9.40
2022-08-27T22:18:07.477Z,9.00
2022-08-27T22:23:14.356Z,9.10
2022-08-27T22:28:20.321Z,9.50
2022-08-27T22:33:26.163Z,9.20
2022-08-27T22:38:32.042Z,9.20
2022-08-27T22:43:39.090Z,8.30
2022-08-27T22:48:47.764Z,8.00
2022-08-27T22:53:53.847Z,8.90
2022-08-27T22:59:00.078Z,8.80
2022-08-27T23:04:06.868Z,9.40
2022-08-27T23:09:12.746Z,8.50
2022-08-27T23:14:18.551Z,9.10
2022-08-27T23:19:24.440Z,8.60
2022-08-27T23:24:30.314Z,8.80
2022-08-27T23:29:36.763Z,8.60
2022-08-27T23:34:42.668Z,8.10
2022-08-27T23:39:48.687Z,8.60
2022-08-27T23:44:55.228Z,9.20
2022-08-27T23:50:01.180Z,9.00
2022-08-27T23:55:10.475Z,7.80
